Time;durP1;ratioP1;P1;durP2;ratioP2;P2;SDS_P1;SDS_P2;PMS_P1;PMS_P2;Temp;Humidity;BMP_temperature;BMP_pressure;BME280_temperature;BME280_humidity;BME280_pressure;Samples;Min_cycle;Max_cycle;Signal;HPM_P1;HPM_P2
2022/01/20 00:01:50;;;;;;;31.95;11.80;;;;;;;-3.95;100.00;99159.78;4455788;32;20133;-73
2022/01/20 00:04:24;;;;;;;28.05;9.38;;;;;;;-4.06;100.00;99159.16;4450922;32;20514;-73
2022/01/20 00:26:06;;;;;;;24.77;9.85;;;;;;;-4.11;100.00;99172.06;4450686;32;20184;-73
2022/01/20 00:28:45;;;;;;;25.48;9.57;;;;;;;-4.22;100.00;99158.69;4450299;32;20135;-72
2022/01/20 00:34:08;;;;;;;20.25;8.38;;;;;;;-4.19;100.00;99162.91;4450438;32;20105;-72
2022/01/20 00:39:04;;;;;;;28.38;10.38;;;;;;;-3.90;100.00;99172.47;4450413;32;20088;-73
2022/01/20 00:41:32;;;;;;;24.85;9.88;;;;;;;-3.97;100.00;99170.91;4450375;32;20630;-72
2022/01/20 00:44:00;;;;;;;22.92;9.52;;;;;;;-3.96;100.00;99172.59;4450568;32;20127;-73
2022/01/20 00:46:27;;;;;;;22.42;9.63;;;;;;;-3.97;100.00;99170.91;4450703;32;20450;-72
2022/01/20 00:48:54;;;;;;;23.90;10.07;;;;;;;-4.12;100.00;99174.66;4450258;32;20160;-73
2022/01/20 00:51:23;;;;;;;22.50;9.95;;;;;;;-4.16;100.00;99168.78;4450916;32;20117;-72
2022/01/20 00:53:51;;;;;;;32.22;9.63;;;;;;;-4.23;100.00;99177.47;4439133;32;20101;-73
2022/01/20 00:56:18;;;;;;;23.95;9.95;;;;;;;-4.29;100.00;99177.63;4451982;32;20165;-72
2022/01/20 00:58:45;;;;;;;32.63;11.20;;;;;;;-4.43;100.00;99165.13;4452406;32;20438;-73
2022/01/20 01:01:14;;;;;;;24.58;9.80;;;;;;;-4.49;100.00;99171.22;4459621;32;20128;-73
2022/01/20 01:03:42;;;;;;;21.35;9.80;;;;;;;-4.52;100.00;99180.69;4469515;32;20175;-73
2022/01/20 01:08:43;;;;;;;28.52;10.45;;;;;;;-4.55;100.00;99173.06;4470198;32;20088;-73
2022/01/20 01:11:11;;;;;;;24.00;10.57;;;;;;;-4.50;100.00;99179.75;4470421;32;20232;-73
2022/01/20 01:13:38;;;;;;;28.95;9.98;;;;;;;-4.52;100.00;99176.41;4470519;32;20118;-73
2022/01/20 01:16:09;;;;;;;35.33;9.75;;;;;;;-4.63;100.00;99175.78;4470140;32;20122;-73
2022/01/20 01:21:40;;;;;;;28.00;9.55;;;;;;;-4.70;100.00;99180.19;4479896;32;20157;-73
2022/01/20 01:24:08;;;;;;;25.65;9.80;;;;;;;-4.62;100.00;99177.47;4485918;31;20142;-73
2022/01/20 01:26:36;;;;;;;19.40;9.23;;;;;;;-4.33;100.00;99173.44;4485906;31;20143;-73
2022/01/20 01:29:13;;;;;;;27.15;10.88;;;;;;;-4.10;100.00;99163.53;4486025;31;20122;-73
2022/01/20 01:31:41;;;;;;;24.73;8.70;;;;;;;-3.96;100.00;99162.37;4486192;31;20092;-73
2022/01/20 01:34:12;;;;;;;24.23;10.02;;;;;;;-3.95;100.00;99166.62;4485950;31;20118;-72
2022/01/20 01:36:50;;;;;;;27.75;10.00;;;;;;;-3.75;100.00;99159.28;4485725;31;20084;-73
2022/01/20 01:39:18;;;;;;;24.35;10.27;;;;;;;-3.67;100.00;99146.28;4485747;31;20438;-73
2022/01/20 01:41:46;;;;;;;24.30;9.27;;;;;;;-3.65;100.00;99149.66;4486010;31;20101;-72
2022/01/20 01:44:20;;;;;;;29.00;10.35;;;;;;;-3.49;100.00;99128.78;4485674;31;20095;-72
2022/01/20 01:46:49;;;;;;;29.25;9.43;;;;;;;-3.50;100.00;99116.84;4485951;31;20089;-73
2022/01/20 01:49:17;;;;;;;25.75;10.82;;;;;;;-3.52;100.00;99116.06;4485558;31;20105;-73
2022/01/20 01:51:45;;;;;;;25.77;10.25;;;;;;;-3.65;100.00;99095.03;4485486;31;20161;-73
2022/01/20 01:54:15;;;;;;;23.90;10.60;;;;;;;-3.43;100.00;99114.09;4485612;31;20096;-73
2022/01/20 01:56:43;;;;;;;23.83;11.12;;;;;;;-3.37;100.00;99102.84;4480211;31;165821;-73
2022/01/20 01:59:11;;;;;;;19.77;9.75;;;;;;;-3.16;100.00;99096.28;4485923;31;20119;-73
2022/01/20 02:01:40;;;;;;;27.65;11.45;;;;;;;-3.17;100.00;99104.84;4485394;32;20138;-73
2022/01/20 02:04:18;;;;;;;19.25;9.43;;;;;;;-3.13;100.00;99085.94;4485668;31;20480;-73
2022/01/20 02:07:12;;;;;;;27.48;10.82;;;;;;;-3.06;100.00;99091.72;4485957;31;20156;-73
2022/01/20 02:17:51;;;;;;;21.35;9.55;;;;;;;-3.04;100.00;99088.25;4485609;32;20088;-73
2022/01/20 02:20:41;;;;;;;31.85;12.80;;;;;;;-2.89;100.00;99063.06;4485461;31;20115;-73
2022/01/20 02:23:08;;;;;;;30.20;12.43;;;;;;;-2.87;100.00;99058.72;4485490;31;20096;-73
2022/01/20 02:25:36;;;;;;;25.62;11.90;;;;;;;-2.88;100.00;99052.78;4485374;31;20076;-73
2022/01/20 02:28:07;;;;;;;29.37;12.37;;;;;;;-2.87;100.00;99048.47;4485267;31;20386;-73
2022/01/20 02:30:36;;;;;;;25.10;11.05;;;;;;;-2.91;100.00;99047.69;4485661;31;20151;-73
2022/01/20 02:33:05;;;;;;;28.60;13.23;;;;;;;-2.95;100.00;99037.59;4485598;31;20104;-73
2022/01/20 02:35:38;;;;;;;27.00;11.80;;;;;;;-3.03;100.00;99048.94;4485254;31;20503;-73
2022/01/20 02:38:12;;;;;;;25.37;12.48;;;;;;;-3.17;100.00;99039.97;4485595;32;20147;-73
2022/01/20 02:46:04;;;;;;;29.87;12.00;;;;;;;-3.12;100.00;99031.25;4485582;31;20143;-73
2022/01/20 02:48:33;;;;;;;29.58;11.57;;;;;;;-3.10;100.00;99032.03;4485194;31;20508;-73
2022/01/20 02:51:00;;;;;;;35.88;12.65;;;;;;;-3.09;100.00;99026.06;4485355;31;20092;-73
2022/01/20 02:53:29;;;;;;;32.53;12.13;;;;;;;-3.14;100.00;99021.94;4485432;31;20091;-73
2022/01/20 02:55:57;;;;;;;30.83;13.15;;;;;;;-3.21;100.00;99032.37;4485092;31;20092;-72
2022/01/20 02:58:24;;;;;;;28.95;12.50;;;;;;;-3.31;100.00;99027.56;4485450;31;20096;-73
2022/01/20 03:00:52;;;;;;;31.23;12.60;;;;;;;-3.32;100.00;99023.31;4485315;31;20157;-73
2022/01/20 03:03:19;;;;;;;29.42;11.77;;;;;;;-3.43;100.00;99015.94;4485231;31;20088;-73
2022/01/20 03:05:47;;;;;;;29.20;12.13;;;;;;;-3.57;100.00;99017.16;4484958;31;20084;-73
2022/01/20 03:08:14;;;;;;;31.30;12.55;;;;;;;-3.69;100.00;99003.84;4485091;31;20719;-73
2022/01/20 03:10:42;;;;;;;28.45;11.82;;;;;;;-3.81;100.00;99016.09;4485011;31;20103;-73
2022/01/20 03:13:09;;;;;;;26.87;12.45;;;;;;;-3.81;100.00;98998.19;4484914;31;20100;-73
2022/01/20 03:15:36;;;;;;;25.52;11.88;;;;;;;-3.79;100.00;98998.97;4484409;31;20455;-73
2022/01/20 03:18:05;;;;;;;26.92;10.35;;;;;;;-3.97;100.00;98991.78;4485188;31;20462;-73
2022/01/20 03:20:32;;;;;;;27.48;9.98;;;;;;;-3.93;100.00;98995.94;4485187;31;20136;-73
2022/01/20 03:23:00;;;;;;;28.92;11.12;;;;;;;-3.84;100.00;98989.75;4484838;31;20220;-73
2022/01/20 03:25:28;;;;;;;27.08;11.23;;;;;;;-3.96;100.00;98993.47;4484869;31;20100;-73
2022/01/20 03:27:56;;;;;;;25.65;11.70;;;;;;;-3.90;100.00;98980.50;4484963;31;20084;-73
2022/01/20 03:30:25;;;;;;;28.52;10.25;;;;;;;-4.00;100.00;98979.06;4484982;31;20084;-73
2022/01/20 03:32:52;;;;;;;24.73;11.20;;;;;;;-3.97;100.00;98979.00;4485164;31;20107;-73
2022/01/20 03:35:21;;;;;;;24.48;10.35;;;;;;;-4.06;100.00;98980.06;4485104;31;20450;-73
2022/01/20 03:37:49;;;;;;;31.02;11.68;;;;;;;-4.12;100.00;98975.13;4485175;31;20167;-73
2022/01/20 03:40:17;;;;;;;24.98;10.55;;;;;;;-4.22;100.00;98971.09;4484795;31;20122;-73
2022/01/20 03:42:45;;;;;;;28.85;11.10;;;;;;;-4.16;100.00;98968.41;4485120;31;20568;-73
2022/01/20 03:45:13;;;;;;;30.70;10.50;;;;;;;-4.20;100.00;98952.28;4484844;31;20118;-73
2022/01/20 03:47:42;;;;;;;28.42;10.48;;;;;;;-4.29;100.00;98963.59;4484845;31;20092;-73
2022/01/20 03:50:59;;;;;;;32.38;11.50;;;;;;;-4.44;100.00;98960.59;4484930;31;20130;-73
2022/01/20 03:52:57;;;;;;;29.37;11.48;;;;;;;-4.47;100.00;98954.72;4484657;31;20092;-73
2022/01/20 03:55:24;;;;;;;21.83;10.70;;;;;;;-4.50;100.00;98951.38;4484905;31;20096;-73
2022/01/20 03:57:52;;;;;;;27.50;10.77;;;;;;;-4.50;100.00;98949.63;4484646;31;20084;-72
2022/01/20 04:00:20;;;;;;;23.20;10.68;;;;;;;-4.53;100.00;98941.22;4484379;31;20161;-73
2022/01/20 04:02:47;;;;;;;33.15;11.57;;;;;;;-4.52;100.00;98940.34;4484843;31;20100;-72
2022/01/20 04:05:15;;;;;;;25.65;11.75;;;;;;;-4.52;100.00;98938.62;4484739;31;20491;-72
2022/01/20 04:07:44;;;;;;;29.75;10.93;;;;;;;-4.41;100.00;98937.50;4484879;31;20390;-72
2022/01/20 04:10:11;;;;;;;26.80;10.70;;;;;;;-4.48;100.00;98940.22;4484366;31;20540;-73
2022/01/20 04:12:38;;;;;;;25.20;11.12;;;;;;;-4.42;100.00;98940.94;4484444;31;20096;-72
2022/01/20 04:15:09;;;;;;;30.08;11.10;;;;;;;-4.40;100.00;98945.16;4484305;31;20118;-73
2022/01/20 04:17:42;;;;;;;31.58;12.07;;;;;;;-4.28;100.00;98944.00;4484366;32;20088;-72
2022/01/20 04:20:11;;;;;;;27.52;10.43;;;;;;;-4.28;100.00;98936.31;4484166;31;20449;-72
2022/01/20 04:22:39;;;;;;;25.30;10.02;;;;;;;-4.31;100.00;98944.91;4484199;31;20092;-72
2022/01/20 04:25:06;;;;;;;24.37;10.98;;;;;;;-4.20;100.00;98949.75;4484989;31;20101;-72
2022/01/20 04:27:34;;;;;;;27.23;10.52;;;;;;;-4.16;100.00;98941.13;4485262;32;20566;-72
2022/01/20 04:30:02;;;;;;;31.00;11.50;;;;;;;-4.12;100.00;98944.41;4486164;31;20454;-72
2022/01/20 04:32:29;;;;;;;28.10;11.45;;;;;;;-4.13;100.00;98958.94;4486472;31;20100;-72
2022/01/20 04:34:57;;;;;;;27.35;11.77;;;;;;;-4.17;100.00;98951.38;4486320;31;20118;-72
2022/01/20 04:37:25;;;;;;;37.53;11.12;;;;;;;-4.19;100.00;98948.87;4486160;31;20155;-72
2022/01/20 04:39:52;;;;;;;27.73;12.02;;;;;;;-4.25;100.00;98949.03;4486157;31;20088;-72
2022/01/20 04:42:21;;;;;;;34.80;11.65;;;;;;;-4.29;100.00;98957.66;4486155;31;20474;-73
2022/01/20 04:45:00;;;;;;;35.00;12.35;;;;;;;-4.28;100.00;98964.47;4486169;31;20100;-72
2022/01/20 04:48:16;;;;;;;33.90;13.57;;;;;;;-4.32;100.00;98955.19;4486274;31;20084;-72
2022/01/20 04:58:36;;;;;;;34.83;12.05;;;;;;;-4.25;100.00;98963.53;4484910;32;20131;-72
2022/01/20 05:01:03;;;;;;;31.23;11.45;;;;;;;-4.23;100.00;98957.50;4486019;31;20091;-72
2022/01/20 05:03:33;;;;;;;31.42;11.93;;;;;;;-4.20;100.00;98954.84;4486242;32;20605;-72
2022/01/20 05:06:01;;;;;;;23.25;10.45;;;;;;;-4.07;100.00;98944.28;4486147;31;20116;-72
2022/01/20 05:08:30;;;;;;;31.17;12.02;;;;;;;-4.04;100.00;98951.88;4486067;31;20111;-72
2022/01/20 05:11:01;;;;;;;22.90;9.80;;;;;;;-3.98;100.00;98947.47;4486201;31;20138;-72
2022/01/20 05:13:34;;;;;;;35.47;11.32;;;;;;;-4.01;100.00;98937.31;4486358;31;20092;-72
2022/01/20 05:16:01;;;;;;;35.53;12.80;;;;;;;-3.90;100.00;98944.69;4486072;31;20093;-72
2022/01/20 05:18:30;;;;;;;23.85;11.15;;;;;;;-3.89;100.00;98946.38;4485964;31;20088;-72
2022/01/20 05:20:57;;;;;;;31.10;10.32;;;;;;;-3.85;100.00;98942.00;4485491;31;20100;-72
2022/01/20 05:23:24;;;;;;;27.75;9.88;;;;;;;-3.81;100.00;98935.91;4484572;32;20104;-72
2022/01/20 05:25:52;;;;;;;24.23;10.05;;;;;;;-3.71;100.00;98936.47;4485878;31;20089;-72
2022/01/20 05:28:20;;;;;;;29.40;11.20;;;;;;;-3.70;100.00;98941.56;4485985;31;20163;-72
2022/01/20 05:30:47;;;;;;;34.45;12.55;;;;;;;-3.70;100.00;98938.16;4484420;32;20505;-72
2022/01/20 05:33:14;;;;;;;31.12;11.32;;;;;;;-3.71;100.00;98939.88;4485966;31;20096;-72
2022/01/20 05:35:42;;;;;;;37.40;10.10;;;;;;;-3.65;100.00;98943.97;4485575;31;20096;-72
2022/01/20 05:38:11;;;;;;;31.90;11.50;;;;;;;-3.63;100.00;98944.81;4484917;31;20780;-72
2022/01/20 05:40:39;;;;;;;35.22;11.32;;;;;;;-3.63;100.00;98932.81;4485453;31;20488;-72
2022/01/20 05:43:07;;;;;;;39.83;12.20;;;;;;;-3.59;100.00;98943.81;4485277;31;20099;-72
2022/01/20 05:45:35;;;;;;;38.53;12.15;;;;;;;-3.58;100.00;98932.69;4485518;31;20176;-72
2022/01/20 05:48:11;;;;;;;27.95;11.45;;;;;;;-3.49;100.00;98944.41;4485403;31;20089;-72
2022/01/20 05:50:40;;;;;;;33.40;12.23;;;;;;;-3.47;100.00;98940.87;4483666;32;20080;-72
2022/01/20 05:53:08;;;;;;;26.27;11.77;;;;;;;-3.52;100.00;98942.75;4484915;31;20165;-73
2022/01/20 05:55:39;;;;;;;31.77;11.25;;;;;;;-3.36;100.00;98943.16;4484716;31;20126;-72
2022/01/20 05:58:06;;;;;;;31.60;12.75;;;;;;;-3.41;100.00;98940.75;4485023;31;20092;-73
2022/01/20 06:00:36;;;;;;;32.10;11.68;;;;;;;-3.43;100.00;98945.03;4483774;31;20165;-73
2022/01/20 06:05:50;;;;;;;23.90;11.10;;;;;;;-3.49;100.00;98944.41;4484419;31;20096;-73
2022/01/20 06:08:17;;;;;;;34.33;12.15;;;;;;;-3.33;100.00;98949.87;4482624;32;20127;-73
2022/01/20 06:10:44;;;;;;;31.23;12.60;;;;;;;-3.32;100.00;98951.56;4485132;31;20104;-73
2022/01/20 06:13:12;;;;;;;37.55;12.32;;;;;;;-3.31;100.00;98955.81;4485019;31;20092;-73
2022/01/20 06:15:39;;;;;;;41.60;14.30;;;;;;;-3.31;100.00;98950.69;4485317;31;20104;-73
2022/01/20 06:18:08;;;;;;;26.35;11.90;;;;;;;-3.29;100.00;98947.19;4485571;31;20088;-73
2022/01/20 06:20:37;;;;;;;33.38;13.50;;;;;;;-3.26;100.00;98951.38;4485554;32;20122;-73
2022/01/20 06:23:09;;;;;;;35.42;13.20;;;;;;;-3.14;100.00;98950.19;4484460;32;20108;-73
2022/01/20 06:25:37;;;;;;;27.50;11.73;;;;;;;-3.20;100.00;98943.53;4485097;31;20119;-73
2022/01/20 06:28:04;;;;;;;24.63;10.63;;;;;;;-3.04;100.00;98936.22;4478724;31;20167;-73
2022/01/20 06:30:32;;;;;;;29.40;11.73;;;;;;;-2.91;100.00;98934.91;4476794;32;20135;-73
2022/01/20 06:33:01;;;;;;;27.65;12.10;;;;;;;-2.88;100.00;98944.25;4476861;32;20160;-73
2022/01/20 06:35:28;;;;;;;30.00;11.93;;;;;;;-2.64;100.00;98934.09;4475332;32;20080;-72
2022/01/20 06:37:56;;;;;;;32.90;11.68;;;;;;;-2.60;100.00;98945.94;4468266;32;20489;-73
2022/01/20 06:40:23;;;;;;;53.30;16.58;;;;;;;-2.63;100.00;98946.88;4483178;31;20092;-73
2022/01/20 06:42:50;;;;;;;29.75;11.93;;;;;;;-2.52;100.00;98943.94;4478904;32;20507;-73
2022/01/20 06:45:18;;;;;;;27.57;11.50;;;;;;;-2.50;100.00;98944.72;4477194;32;21667;-73
2022/01/20 06:47:46;;;;;;;26.08;11.20;;;;;;;-2.50;99.83;98952.41;4474994;32;20173;-72
2022/01/20 06:50:14;;;;;;;26.02;11.25;;;;;;;-2.57;100.00;98941.53;4483513;31;20491;-72
2022/01/20 06:52:44;;;;;;;32.97;11.23;;;;;;;-2.57;100.00;98933.00;4480631;32;20095;-72
2022/01/20 06:55:12;;;;;;;26.12;11.65;;;;;;;-2.45;100.00;98918.91;4483073;31;20100;-72
2022/01/20 06:57:40;;;;;;;33.55;11.95;;;;;;;-2.40;99.84;98923.00;4481077;32;20104;-72
2022/01/20 07:00:13;;;;;;;29.77;10.68;;;;;;;-2.36;99.05;98918.63;4482154;31;20120;-73
2022/01/20 07:02:41;;;;;;;31.30;10.48;;;;;;;-2.35;99.61;98908.31;4483203;32;20096;-73
2022/01/20 07:05:10;;;;;;;34.55;11.85;;;;;;;-2.24;99.33;98907.09;4478161;31;20535;-73
2022/01/20 07:07:38;;;;;;;23.87;11.40;;;;;;;-2.19;99.15;98903.47;4479432;31;20116;-72
2022/01/20 07:10:06;;;;;;;27.27;11.60;;;;;;;-2.17;98.86;98906.81;4481545;31;20112;-72
2022/01/20 07:12:36;;;;;;;31.70;12.30;;;;;;;-2.10;98.81;98906.62;4479164;31;20122;-72
2022/01/20 07:15:07;;;;;;;26.58;11.55;;;;;;;-2.21;98.66;98897.56;4476476;32;20119;-73
2022/01/20 07:17:34;;;;;;;27.90;11.48;;;;;;;-2.13;99.23;98905.00;4482540;31;20112;-72
2022/01/20 07:20:03;;;;;;;24.40;10.93;;;;;;;-2.20;99.40;98906.09;4483149;31;20131;-72
2022/01/20 07:22:30;;;;;;;28.73;12.35;;;;;;;-2.15;99.88;98896.50;4484315;31;20110;-72
2022/01/20 07:24:58;;;;;;;30.02;11.27;;;;;;;-2.01;99.58;98896.03;4485260;31;20108;-72
2022/01/20 07:27:30;;;;;;;31.87;12.02;;;;;;;-2.01;99.87;98896.84;4478265;32;20148;-73
2022/01/20 07:30:07;;;;;;;23.83;9.90;;;;;;;-1.88;99.63;98894.66;4481249;32;20220;-72
2022/01/20 07:32:35;;;;;;;28.38;10.77;;;;;;;-1.75;99.32;98892.50;4480188;31;20123;-72
2022/01/20 07:35:03;;;;;;;24.75;11.45;;;;;;;-1.68;99.23;98891.38;4488693;31;20104;-72
2022/01/20 07:37:30;;;;;;;25.42;10.50;;;;;;;-1.58;98.73;98891.88;4481678;32;20151;-72
2022/01/20 07:39:58;;;;;;;27.20;10.10;;;;;;;-1.50;98.47;98889.00;4481318;31;20112;-72
2022/01/20 07:42:25;;;;;;;22.83;10.32;;;;;;;-1.45;98.42;98889.69;4472422;31;20118;-73
2022/01/20 07:44:53;;;;;;;29.92;10.45;;;;;;;-1.35;97.82;98900.44;4470740;31;20481;-73
2022/01/20 07:47:21;;;;;;;23.17;10.27;;;;;;;-1.33;97.76;98889.19;4468421;31;20115;-73
2022/01/20 07:49:48;;;;;;;26.15;10.15;;;;;;;-1.25;97.15;98894.88;4477894;32;20506;-73
2022/01/20 07:52:15;;;;;;;30.05;11.45;;;;;;;-1.14;97.02;98896.19;4470670;31;20127;-73
2022/01/20 07:54:43;;;;;;;21.85;10.50;;;;;;;-1.14;97.10;98893.63;4476201;31;20112;-73
2022/01/20 07:57:10;;;;;;;32.08;10.25;;;;;;;-0.92;96.16;98888.47;4479673;31;20147;-73
2022/01/20 07:59:38;;;;;;;27.48;10.43;;;;;;;-0.80;95.26;98887.09;4476756;32;20115;-73
2022/01/20 08:02:08;;;;;;;28.10;12.48;;;;;;;-0.66;95.12;98892.53;4478496;32;20567;-73
2022/01/20 08:04:36;;;;;;;26.02;10.73;;;;;;;-0.55;94.52;98892.09;4482045;31;20105;-73
2022/01/20 08:07:03;;;;;;;26.12;11.57;;;;;;;-0.46;94.05;98890.88;4477677;31;20139;-72
2022/01/20 08:09:31;;;;;;;27.75;10.40;;;;;;;-0.21;93.34;98888.91;4475258;31;20106;-73
2022/01/20 08:12:18;;;;;;;23.83;10.20;;;;;;;-0.27;92.81;98894.34;4483074;32;20148;-72
2022/01/20 08:14:45;;;;;;;28.12;10.55;;;;;;;-0.05;92.62;98890.81;4483171;31;20116;-72
2022/01/20 08:17:13;;;;;;;22.85;9.40;;;;;;;0.06;92.62;98898.94;4476715;31;20172;-72
2022/01/20 08:19:41;;;;;;;24.00;9.82;;;;;;;0.13;91.66;98899.47;4477907;32;20099;-72
2022/01/20 08:22:09;;;;;;;25.33;10.40;;;;;;;0.16;91.08;98900.16;4482427;32;20096;-72
2022/01/20 08:24:56;;;;;;;22.23;9.93;;;;;;;0.19;91.83;98900.94;4477735;31;20469;-72
2022/01/20 08:27:23;;;;;;;23.58;10.75;;;;;;;0.09;92.16;98893.63;4481316;31;20096;-72
2022/01/20 08:29:50;;;;;;;30.80;10.05;;;;;;;0.20;92.17;98895.72;4474123;31;20484;-72
2022/01/20 08:32:19;;;;;;;25.55;11.85;;;;;;;0.11;92.92;98899.53;4477311;32;20215;-72
2022/01/20 08:34:47;;;;;;;20.37;9.45;;;;;;;0.21;92.19;98901.72;4468562;31;20117;-73
2022/01/20 08:37:16;;;;;;;22.87;9.70;;;;;;;0.30;92.92;98902.16;4477293;31;20114;-72
2022/01/20 08:39:46;;;;;;;28.62;10.52;;;;;;;0.42;92.23;98902.47;4469880;31;20137;-73
2022/01/20 08:42:14;;;;;;;21.55;8.95;;;;;;;0.49;91.03;98909.03;4487828;31;20091;-73
2022/01/20 08:44:41;;;;;;;20.08;8.63;;;;;;;0.64;91.27;98899.78;4488160;31;20101;-73
2022/01/20 08:47:15;;;;;;;21.62;9.20;;;;;;;0.74;90.37;98893.25;4478259;31;20100;-73
2022/01/20 08:49:47;;;;;;;19.67;9.13;;;;;;;0.83;90.04;98887.69;4485117;31;20088;-73
2022/01/20 08:52:16;;;;;;;20.80;9.40;;;;;;;0.80;90.58;98882.66;4485374;31;20089;-72
2022/01/20 08:54:45;;;;;;;23.90;9.07;;;;;;;0.87;89.64;98881.44;4483123;31;20139;-72
2022/01/20 08:57:14;;;;;;;22.70;9.32;;;;;;;0.91;89.54;98889.03;4477586;31;20096;-72
2022/01/20 08:59:42;;;;;;;27.10;10.65;;;;;;;0.94;88.87;98884.59;4467961;31;20123;-72
2022/01/20 09:02:10;;;;;;;29.15;10.82;;;;;;;1.04;88.77;98882.38;4478397;31;20161;-72
2022/01/20 09:04:38;;;;;;;21.25;10.00;;;;;;;1.03;89.06;98880.72;4473696;32;20126;-72
2022/01/20 09:07:09;;;;;;;24.05;10.73;;;;;;;1.08;89.60;98888.25;4483744;31;20160;-72
2022/01/20 09:09:41;;;;;;;19.45;9.52;;;;;;;1.26;88.98;98886.50;4482794;31;20566;-72
2022/01/20 09:17:26;;;;;;;25.67;11.32;;;;;;;1.40;86.94;98896.97;4481041;32;20108;-72
2022/01/20 09:19:53;;;;;;;23.27;9.40;;;;;;;1.30;87.98;98906.09;4484591;31;20092;-72
2022/01/20 09:22:22;;;;;;;20.98;9.93;;;;;;;1.27;87.56;98901.91;4475456;31;20583;-72
2022/01/20 09:24:50;;;;;;;23.92;9.82;;;;;;;1.36;87.32;98908.38;4475342;31;20126;-72
2022/01/20 09:27:18;;;;;;;27.65;13.02;;;;;;;1.38;88.47;98903.97;4483358;31;20171;-72
2022/01/20 09:29:46;;;;;;;25.35;10.35;;;;;;;1.36;88.46;98892.88;4475323;31;20138;-72
2022/01/20 09:32:16;;;;;;;28.25;11.57;;;;;;;1.52;87.53;98895.53;4478439;31;20695;-72
2022/01/20 09:34:45;;;;;;;22.90;10.57;;;;;;;1.61;87.66;98899.41;4473941;31;20580;-72
2022/01/20 09:37:14;;;;;;;25.27;10.27;;;;;;;1.63;87.64;98895.81;4486035;31;20127;-72
2022/01/20 09:39:42;;;;;;;21.00;9.93;;;;;;;1.78;87.12;98901.97;4483246;31;20488;-72
2022/01/20 09:42:09;;;;;;;20.42;9.52;;;;;;;1.79;86.51;98898.47;4474408;31;20161;-74
2022/01/20 09:44:42;;;;;;;18.30;8.45;;;;;;;1.83;85.99;98892.22;4475400;32;20092;-71
2022/01/20 09:47:09;;;;;;;21.60;8.35;;;;;;;1.82;86.42;98897.47;4481961;31;20096;-72
2022/01/20 09:49:38;;;;;;;22.73;9.10;;;;;;;1.94;85.72;98897.69;4473976;32;20963;-73
2022/01/20 09:52:08;;;;;;;18.95;9.30;;;;;;;1.97;85.39;98896.69;4481718;32;20462;-72
2022/01/20 09:54:36;;;;;;;21.08;8.75;;;;;;;2.04;85.72;98898.03;4484634;31;20122;-72
2022/01/20 09:57:04;;;;;;;26.27;10.75;;;;;;;2.10;86.21;98894.28;4487775;31;20179;-72
2022/01/20 09:59:32;;;;;;;22.27;10.05;;;;;;;2.26;85.74;98887.41;4484062;31;20118;-72
2022/01/20 10:01:59;;;;;;;19.37;9.30;;;;;;;2.29;85.55;98884.66;4474625;32;20212;-72
2022/01/20 10:04:30;;;;;;;16.12;7.97;;;;;;;2.27;85.04;98889.06;4472578;31;20483;-72
2022/01/20 10:07:02;;;;;;;17.33;8.25;;;;;;;2.30;84.76;98878.56;4474897;31;20125;-72
2022/01/20 10:09:42;;;;;;;17.67;7.35;;;;;;;2.31;85.12;98879.41;4466308;32;20093;-72
2022/01/20 10:12:11;;;;;;;13.50;7.03;;;;;;;2.29;85.43;98882.06;4465238;32;20093;-73
2022/01/20 10:14:42;;;;;;;16.05;6.68;;;;;;;2.18;86.35;98881.81;4473720;31;20720;-72
2022/01/20 10:17:20;;;;;;;13.62;7.72;;;;;;;2.12;87.63;98885.56;4480021;31;20088;-72
2022/01/20 10:20:00;;;;;;;16.80;7.90;;;;;;;2.03;89.75;98885.19;4480918;31;20170;-72
2022/01/20 10:22:29;;;;;;;14.48;6.85;;;;;;;2.01;92.19;98880.09;4474507;31;20740;-72
2022/01/20 10:25:04;;;;;;;12.15;6.37;;;;;;;2.03;93.93;98877.44;4482086;31;20101;-72
2022/01/20 10:27:44;;;;;;;11.02;5.03;;;;;;;2.04;95.86;98866.19;4475078;31;20088;-72
2022/01/20 10:30:15;;;;;;;13.27;6.62;;;;;;;2.12;96.69;98867.47;4473425;32;20220;-72
2022/01/20 10:32:50;;;;;;;12.02;5.55;;;;;;;2.16;97.77;98862.12;4477882;31;20719;-72
2022/01/20 10:35:24;;;;;;;12.60;5.65;;;;;;;2.27;97.87;98858.06;4483649;31;20769;-72
2022/01/20 10:37:59;;;;;;;10.63;4.10;;;;;;;2.33;98.08;98859.47;4468674;32;20163;-73
2022/01/20 10:40:30;;;;;;;12.68;4.78;;;;;;;2.32;98.18;98860.41;4470750;32;20133;-73
2022/01/20 10:42:57;;;;;;;7.22;4.25;;;;;;;2.35;98.47;98844.72;4474573;31;20111;-73
2022/01/20 10:45:29;;;;;;;9.65;4.75;;;;;;;2.36;99.05;98848.13;4470399;31;20097;-73
2022/01/20 10:47:59;;;;;;;7.90;3.67;;;;;;;2.30;99.29;98850.13;4475700;32;20088;-72
2022/01/20 10:50:30;;;;;;;6.07;3.58;;;;;;;2.22;100.00;98839.38;4478360;31;20153;-73
2022/01/20 10:52:58;;;;;;;8.70;4.20;;;;;;;2.17;100.00;98830.22;4483163;31;20103;-73
2022/01/20 10:55:25;;;;;;;9.70;4.50;;;;;;;2.23;100.00;98833.28;4481751;31;20114;-74
2022/01/20 10:58:11;;;;;;;5.40;3.12;;;;;;;2.41;100.00;98835.81;4482782;31;20100;-73
2022/01/20 11:00:44;;;;;;;7.47;4.00;;;;;;;2.45;99.88;98824.34;4475579;31;20176;-73
2022/01/20 11:03:13;;;;;;;6.47;3.97;;;;;;;2.40;100.00;98822.03;4476931;32;20138;-73
2022/01/20 11:05:44;;;;;;;9.13;4.05;;;;;;;2.50;99.58;98814.59;4474287;32;20119;-74
2022/01/20 11:08:13;;;;;;;6.05;3.47;;;;;;;2.55;99.33;98802.25;4475117;32;20097;-74
2022/01/20 11:10:42;;;;;;;10.45;4.37;;;;;;;2.60;98.66;98800.22;4478608;31;22000;-73
2022/01/20 11:13:11;;;;;;;8.27;4.50;;;;;;;2.59;98.68;98797.72;4478148;32;20138;-73
2022/01/20 11:15:40;;;;;;;6.93;3.37;;;;;;;2.54;98.45;98792.81;4485130;31;20163;-73
2022/01/20 11:18:09;;;;;;;6.50;3.28;;;;;;;2.59;97.86;98792.53;4473455;32;20156;-73
2022/01/20 11:20:56;;;;;;;8.35;3.95;;;;;;;2.64;97.72;98787.97;4481044;32;20097;-73
2022/01/20 11:23:38;;;;;;;6.18;3.53;;;;;;;2.67;97.26;98790.38;4478358;31;20104;-73
2022/01/20 11:26:12;;;;;;;12.05;3.50;;;;;;;2.67;96.75;98791.19;4474194;31;20096;-73
2022/01/20 11:28:40;;;;;;;5.90;2.40;;;;;;;2.66;96.33;98794.72;4481945;31;20093;-73
2022/01/20 11:31:09;;;;;;;8.60;3.47;;;;;;;2.60;96.35;98791.63;4474555;32;20135;-73
2022/01/20 11:33:42;;;;;;;6.65;3.92;;;;;;;2.69;96.17;98761.84;4480597;31;20100;-73
2022/01/20 11:36:28;;;;;;;5.70;3.50;;;;;;;2.74;95.87;98759.81;4473509;31;20105;-73
2022/01/20 11:39:19;;;;;;;6.68;3.95;;;;;;;2.80;95.34;98733.59;4469579;31;20124;-73
2022/01/20 11:41:49;;;;;;;6.30;3.58;;;;;;;2.93;94.88;98731.97;4481471;32;20434;-73
2022/01/20 11:44:23;;;;;;;4.55;2.67;;;;;;;2.88;93.96;98728.81;4482296;32;20119;-73
2022/01/20 11:46:52;;;;;;;5.70;2.67;;;;;;;2.90;93.97;98726.13;4477142;32;20206;-73
2022/01/20 11:49:22;;;;;;;7.50;3.42;;;;;;;2.93;93.23;98724.19;4469508;32;20397;-73
2022/01/20 11:51:54;;;;;;;6.15;3.20;;;;;;;3.05;93.09;98732.19;4481233;32;20153;-73
2022/01/20 11:54:47;;;;;;;5.90;3.37;;;;;;;2.97;92.84;98723.09;4472707;31;20120;-73
2022/01/20 11:57:30;;;;;;;7.68;3.62;;;;;;;3.05;91.70;98719.25;4473374;32;20116;-73
2022/01/20 12:00:01;;;;;;;8.07;2.78;;;;;;;3.17;91.25;98726.28;4479196;32;20097;-73
2022/01/20 12:02:39;;;;;;;4.95;2.67;;;;;;;3.12;91.51;98723.09;4474745;31;20130;-73
2022/01/20 12:05:36;;;;;;;6.28;3.40;;;;;;;3.11;90.64;98716.28;4469948;32;20115;-73
2022/01/20 12:08:14;;;;;;;6.70;3.28;;;;;;;3.06;91.09;98710.53;4481066;32;20100;-73
2022/01/20 12:10:45;;;;;;;6.45;3.55;;;;;;;3.12;90.50;98704.97;4470904;32;20100;-74
2022/01/20 12:13:16;;;;;;;6.62;3.20;;;;;;;3.13;90.47;98704.91;4474588;32;20163;-73
2022/01/20 12:15:52;;;;;;;6.43;3.10;;;;;;;3.17;88.78;98702.97;4476781;32;20138;-73
2022/01/20 12:18:19;;;;;;;4.93;2.30;;;;;;;3.16;88.17;98696.97;4478091;31;20117;-73
2022/01/20 12:20:47;;;;;;;5.68;3.00;;;;;;;3.24;87.64;98696.50;4473904;32;20179;-73
2022/01/20 12:23:14;;;;;;;7.68;3.30;;;;;;;3.30;86.51;98697.87;4480195;32;20111;-73
2022/01/20 12:25:41;;;;;;;9.10;4.35;;;;;;;3.34;86.97;98694.19;4481564;31;20104;-74
2022/01/20 12:28:10;;;;;;;7.75;4.20;;;;;;;3.51;87.86;98695.72;4479303;32;20112;-73
2022/01/20 12:30:47;;;;;;;7.43;4.03;;;;;;;3.48;87.13;98680.38;4482587;31;20101;-74
2022/01/20 12:33:22;;;;;;;8.73;4.87;;;;;;;3.50;86.60;98666.41;4474987;32;20096;-73